sensor_id;sensor_type;location;lat;lon;timestamp;P1;durP1;ratioP1;P2;durP2;ratioP2
29550;SDS011;16488;52.396;10.696;2022-11-20T00:02:12;37.95;;;21.10;;
29550;SDS011;16488;52.396;10.696;2022-11-20T00:07:04;37.53;;;19.43;;
29550;SDS011;16488;52.396;10.696;2022-11-20T00:09:30;40.58;;;21.98;;
29550;SDS011;16488;52.396;10.696;2022-11-20T00:14:22;45.05;;;22.23;;
29550;SDS011;16488;52.396;10.696;2022-11-20T00:19:14;40.05;;;19.98;;
29550;SDS011;16488;52.396;10.696;2022-11-20T00:24:08;47.35;;;20.35;;
29550;SDS011;16488;52.396;10.696;2022-11-20T00:26:35;39.45;;;21.10;;
29550;SDS011;16488;52.396;10.696;2022-11-20T00:31:27;38.95;;;19.73;;
29550;SDS011;16488;52.396;10.696;2022-11-20T00:33:53;36.70;;;19.95;;
29550;SDS011;16488;52.396;10.696;2022-11-20T00:38:45;40.28;;;21.45;;
29550;SDS011;16488;52.396;10.696;2022-11-20T00:41:14;36.53;;;20.27;;
29550;SDS011;16488;52.396;10.696;2022-11-20T00:43:41;36.53;;;20.02;;
29550;SDS011;16488;52.396;10.696;2022-11-20T00:46:08;38.38;;;19.77;;
29550;SDS011;16488;52.396;10.696;2022-11-20T00:48:34;35.10;;;18.55;;
29550;SDS011;16488;52.396;10.696;2022-11-20T00:53:26;37.45;;;18.33;;
29550;SDS011;16488;52.396;10.696;2022-11-20T00:55:55;30.35;;;17.50;;
29550;SDS011;16488;52.396;10.696;2022-11-20T00:58:22;30.13;;;17.15;;
29550;SDS011;16488;52.396;10.696;2022-11-20T01:00:48;36.72;;;18.45;;
29550;SDS011;16488;52.396;10.696;2022-11-20T01:05:41;32.53;;;16.20;;
29550;SDS011;16488;52.396;10.696;2022-11-20T01:08:07;31.10;;;16.50;;
29550;SDS011;16488;52.396;10.696;2022-11-20T01:10:33;26.80;;;15.57;;
29550;SDS011;16488;52.396;10.696;2022-11-20T01:15:43;29.50;;;15.50;;
29550;SDS011;16488;52.396;10.696;2022-11-20T01:20:35;28.83;;;15.40;;
29550;SDS011;16488;52.396;10.696;2022-11-20T01:23:02;29.85;;;16.00;;
29550;SDS011;16488;52.396;10.696;2022-11-20T01:25:28;26.98;;;14.75;;
29550;SDS011;16488;52.396;10.696;2022-11-20T01:27:55;30.25;;;16.30;;
29550;SDS011;16488;52.396;10.696;2022-11-20T01:32:46;31.00;;;15.82;;
29550;SDS011;16488;52.396;10.696;2022-11-20T01:35:12;30.75;;;16.27;;
29550;SDS011;16488;52.396;10.696;2022-11-20T01:37:38;27.80;;;15.68;;
29550;SDS011;16488;52.396;10.696;2022-11-20T01:42:30;30.65;;;16.67;;
29550;SDS011;16488;52.396;10.696;2022-11-20T01:48:00;29.35;;;15.85;;
29550;SDS011;16488;52.396;10.696;2022-11-20T01:55:20;27.05;;;15.15;;
29550;SDS011;16488;52.396;10.696;2022-11-20T01:57:47;27.55;;;15.55;;
29550;SDS011;16488;52.396;10.696;2022-11-20T02:00:14;28.95;;;15.70;;
29550;SDS011;16488;52.396;10.696;2022-11-20T02:02:42;28.95;;;14.95;;
29550;SDS011;16488;52.396;10.696;2022-11-20T02:05:21;30.17;;;16.63;;
29550;SDS011;16488;52.396;10.696;2022-11-20T02:07:48;27.52;;;16.13;;
29550;SDS011;16488;52.396;10.696;2022-11-20T02:12:40;25.95;;;14.45;;
29550;SDS011;16488;52.396;10.696;2022-11-20T02:15:24;27.25;;;15.02;;
29550;SDS011;16488;52.396;10.696;2022-11-20T02:20:16;26.73;;;14.65;;
29550;SDS011;16488;52.396;10.696;2022-11-20T02:25:08;32.83;;;16.50;;
29550;SDS011;16488;52.396;10.696;2022-11-20T02:27:35;28.63;;;16.35;;
29550;SDS011;16488;52.396;10.696;2022-11-20T02:30:02;24.65;;;15.15;;
29550;SDS011;16488;52.396;10.696;2022-11-20T02:37:21;27.27;;;14.38;;
29550;SDS011;16488;52.396;10.696;2022-11-20T02:42:13;25.85;;;13.43;;
29550;SDS011;16488;52.396;10.696;2022-11-20T02:47:05;25.35;;;15.00;;
29550;SDS011;16488;52.396;10.696;2022-11-20T02:49:31;25.20;;;14.32;;
29550;SDS011;16488;52.396;10.696;2022-11-20T02:51:57;25.75;;;14.55;;
29550;SDS011;16488;52.396;10.696;2022-11-20T02:56:49;24.75;;;13.68;;
29550;SDS011;16488;52.396;10.696;2022-11-20T02:59:15;25.67;;;13.13;;
29550;SDS011;16488;52.396;10.696;2022-11-20T03:01:41;23.20;;;13.88;;
29550;SDS011;16488;52.396;10.696;2022-11-20T03:04:07;23.95;;;14.02;;
29550;SDS011;16488;52.396;10.696;2022-11-20T03:08:59;23.88;;;13.75;;
29550;SDS011;16488;52.396;10.696;2022-11-20T03:11:25;25.67;;;13.90;;
29550;SDS011;16488;52.396;10.696;2022-11-20T03:16:18;26.58;;;14.50;;
29550;SDS011;16488;52.396;10.696;2022-11-20T03:18:44;31.67;;;14.50;;
29550;SDS011;16488;52.396;10.696;2022-11-20T03:23:36;26.42;;;13.95;;
29550;SDS011;16488;52.396;10.696;2022-11-20T03:26:09;26.00;;;13.93;;
29550;SDS011;16488;52.396;10.696;2022-11-20T03:28:36;26.10;;;13.70;;
29550;SDS011;16488;52.396;10.696;2022-11-20T03:33:28;28.48;;;15.55;;
29550;SDS011;16488;52.396;10.696;2022-11-20T03:35:53;42.40;;;14.40;;
29550;SDS011;16488;52.396;10.696;2022-11-20T03:38:19;26.70;;;14.98;;
29550;SDS011;16488;52.396;10.696;2022-11-20T03:43:11;25.73;;;13.48;;
29550;SDS011;16488;52.396;10.696;2022-11-20T03:45:37;26.75;;;13.77;;
29550;SDS011;16488;52.396;10.696;2022-11-20T03:48:03;28.60;;;14.00;;
29550;SDS011;16488;52.396;10.696;2022-11-20T03:50:29;28.63;;;14.45;;
29550;SDS011;16488;52.396;10.696;2022-11-20T03:55:21;29.50;;;16.30;;
29550;SDS011;16488;52.396;10.696;2022-11-20T03:57:47;26.80;;;15.02;;
29550;SDS011;16488;52.396;10.696;2022-11-20T04:00:13;28.50;;;16.83;;
29550;SDS011;16488;52.396;10.696;2022-11-20T04:02:39;26.13;;;13.70;;
29550;SDS011;16488;52.396;10.696;2022-11-20T04:07:33;25.55;;;15.00;;
29550;SDS011;16488;52.396;10.696;2022-11-20T04:09:59;28.73;;;16.10;;
29550;SDS011;16488;52.396;10.696;2022-11-20T04:14:51;32.22;;;15.40;;
29550;SDS011;16488;52.396;10.696;2022-11-20T04:19:43;28.67;;;15.00;;
29550;SDS011;16488;52.396;10.696;2022-11-20T04:22:08;35.17;;;15.77;;
29550;SDS011;16488;52.396;10.696;2022-11-20T04:24:36;29.10;;;14.32;;
29550;SDS011;16488;52.396;10.696;2022-11-20T04:29:28;28.60;;;15.27;;
29550;SDS011;16488;52.396;10.696;2022-11-20T04:34:20;28.50;;;14.55;;
29550;SDS011;16488;52.396;10.696;2022-11-20T04:39:12;26.13;;;14.45;;
29550;SDS011;16488;52.396;10.696;2022-11-20T04:41:39;26.35;;;15.30;;
29550;SDS011;16488;52.396;10.696;2022-11-20T04:46:32;27.08;;;14.48;;
29550;SDS011;16488;52.396;10.696;2022-11-20T04:48:58;28.73;;;15.88;;
29550;SDS011;16488;52.396;10.696;2022-11-20T04:51:25;27.73;;;15.15;;
29550;SDS011;16488;52.396;10.696;2022-11-20T04:53:51;27.08;;;15.43;;
29550;SDS011;16488;52.396;10.696;2022-11-20T04:58:43;25.98;;;15.18;;
29550;SDS011;16488;52.396;10.696;2022-11-20T05:03:35;29.08;;;16.02;;
29550;SDS011;16488;52.396;10.696;2022-11-20T05:08:27;27.25;;;14.65;;
29550;SDS011;16488;52.396;10.696;2022-11-20T05:10:53;26.08;;;14.50;;
29550;SDS011;16488;52.396;10.696;2022-11-20T05:15:45;26.85;;;14.90;;
29550;SDS011;16488;52.396;10.696;2022-11-20T05:20:36;27.88;;;14.52;;
29550;SDS011;16488;52.396;10.696;2022-11-20T05:25:28;29.55;;;15.18;;
29550;SDS011;16488;52.396;10.696;2022-11-20T05:30:20;28.60;;;15.18;;
29550;SDS011;16488;52.396;10.696;2022-11-20T05:35:12;32.15;;;15.88;;
29550;SDS011;16488;52.396;10.696;2022-11-20T05:37:38;29.63;;;16.67;;
29550;SDS011;16488;52.396;10.696;2022-11-20T05:42:30;30.73;;;16.08;;
29550;SDS011;16488;52.396;10.696;2022-11-20T05:44:57;28.05;;;15.60;;
29550;SDS011;16488;52.396;10.696;2022-11-20T05:47:23;34.17;;;16.65;;
29550;SDS011;16488;52.396;10.696;2022-11-20T05:52:15;29.00;;;14.82;;
29550;SDS011;16488;52.396;10.696;2022-11-20T05:57:06;29.88;;;14.77;;
29550;SDS011;16488;52.396;10.696;2022-11-20T05:59:32;24.58;;;13.20;;
29550;SDS011;16488;52.396;10.696;2022-11-20T06:04:24;27.35;;;14.35;;
29550;SDS011;16488;52.396;10.696;2022-11-20T06:06:50;27.70;;;13.57;;
29550;SDS011;16488;52.396;10.696;2022-11-20T06:09:16;26.00;;;15.07;;
29550;SDS011;16488;52.396;10.696;2022-11-20T06:14:09;24.55;;;13.05;;
29550;SDS011;16488;52.396;10.696;2022-11-20T06:19:01;24.60;;;13.02;;
29550;SDS011;16488;52.396;10.696;2022-11-20T06:21:27;28.77;;;13.27;;
29550;SDS011;16488;52.396;10.696;2022-11-20T06:26:22;28.50;;;14.35;;
29550;SDS011;16488;52.396;10.696;2022-11-20T06:28:49;24.00;;;13.60;;
29550;SDS011;16488;52.396;10.696;2022-11-20T06:31:17;24.95;;;13.93;;
29550;SDS011;16488;52.396;10.696;2022-11-20T06:33:43;27.27;;;13.43;;
29550;SDS011;16488;52.396;10.696;2022-11-20T06:36:10;26.55;;;15.40;;
29550;SDS011;16488;52.396;10.696;2022-11-20T06:38:37;26.52;;;14.38;;
29550;SDS011;16488;52.396;10.696;2022-11-20T06:41:04;27.42;;;14.00;;
29550;SDS011;16488;52.396;10.696;2022-11-20T06:43:30;23.92;;;13.15;;
29550;SDS011;16488;52.396;10.696;2022-11-20T06:48:22;24.67;;;13.27;;
29550;SDS011;16488;52.396;10.696;2022-11-20T06:50:48;20.73;;;13.10;;
29550;SDS011;16488;52.396;10.696;2022-11-20T06:53:15;28.23;;;14.50;;
29550;SDS011;16488;52.396;10.696;2022-11-20T06:55:44;26.60;;;14.10;;
29550;SDS011;16488;52.396;10.696;2022-11-20T06:58:11;26.73;;;14.32;;
29550;SDS011;16488;52.396;10.696;2022-11-20T07:00:37;33.78;;;16.63;;
29550;SDS011;16488;52.396;10.696;2022-11-20T07:05:29;31.02;;;15.35;;
29550;SDS011;16488;52.396;10.696;2022-11-20T07:10:21;31.08;;;14.95;;
29550;SDS011;16488;52.396;10.696;2022-11-20T07:15:12;29.80;;;15.80;;
29550;SDS011;16488;52.396;10.696;2022-11-20T07:17:38;28.23;;;15.90;;
29550;SDS011;16488;52.396;10.696;2022-11-20T07:20:04;25.63;;;13.80;;
29550;SDS011;16488;52.396;10.696;2022-11-20T07:24:56;29.40;;;14.95;;
29550;SDS011;16488;52.396;10.696;2022-11-20T07:29:48;28.58;;;15.00;;
29550;SDS011;16488;52.396;10.696;2022-11-20T07:32:14;24.08;;;12.90;;
29550;SDS011;16488;52.396;10.696;2022-11-20T07:37:06;22.48;;;13.38;;
29550;SDS011;16488;52.396;10.696;2022-11-20T07:39:32;23.48;;;13.07;;
29550;SDS011;16488;52.396;10.696;2022-11-20T07:41:58;20.35;;;11.77;;
29550;SDS011;16488;52.396;10.696;2022-11-20T07:44:24;24.15;;;14.02;;
29550;SDS011;16488;52.396;10.696;2022-11-20T07:49:15;21.85;;;12.38;;
29550;SDS011;16488;52.396;10.696;2022-11-20T07:51:41;25.02;;;13.75;;
29550;SDS011;16488;52.396;10.696;2022-11-20T07:54:07;23.80;;;12.30;;
29550;SDS011;16488;52.396;10.696;2022-11-20T07:58:59;23.38;;;13.80;;
29550;SDS011;16488;52.396;10.696;2022-11-20T08:03:51;24.98;;;14.75;;
29550;SDS011;16488;52.396;10.696;2022-11-20T08:06:17;28.90;;;14.90;;
29550;SDS011;16488;52.396;10.696;2022-11-20T08:08:44;23.88;;;13.50;;
29550;SDS011;16488;52.396;10.696;2022-11-20T08:13:55;28.60;;;14.88;;
29550;SDS011;16488;52.396;10.696;2022-11-20T08:16:43;24.83;;;13.77;;
29550;SDS011;16488;52.396;10.696;2022-11-20T08:19:09;26.30;;;13.77;;
29550;SDS011;16488;52.396;10.696;2022-11-20T08:21:35;27.50;;;14.95;;
29550;SDS011;16488;52.396;10.696;2022-11-20T08:26:27;24.02;;;13.95;;
29550;SDS011;16488;52.396;10.696;2022-11-20T08:28:54;26.20;;;15.70;;
29550;SDS011;16488;52.396;10.696;2022-11-20T08:31:20;29.27;;;14.68;;
29550;SDS011;16488;52.396;10.696;2022-11-20T08:36:12;25.15;;;13.30;;
29550;SDS011;16488;52.396;10.696;2022-11-20T08:38:38;26.58;;;14.15;;
29550;SDS011;16488;52.396;10.696;2022-11-20T08:41:04;22.88;;;12.10;;
29550;SDS011;16488;52.396;10.696;2022-11-20T08:43:49;25.80;;;13.30;;
29550;SDS011;16488;52.396;10.696;2022-11-20T08:46:16;20.75;;;13.23;;
29550;SDS011;16488;52.396;10.696;2022-11-20T08:48:42;25.08;;;13.70;;
29550;SDS011;16488;52.396;10.696;2022-11-20T08:51:08;24.15;;;14.85;;
29550;SDS011;16488;52.396;10.696;2022-11-20T08:56:00;22.88;;;14.05;;
29550;SDS011;16488;52.396;10.696;2022-11-20T08:58:36;22.60;;;13.25;;
29550;SDS011;16488;52.396;10.696;2022-11-20T09:01:02;25.05;;;14.25;;
29550;SDS011;16488;52.396;10.696;2022-11-20T09:05:57;22.17;;;12.77;;
29550;SDS011;16488;52.396;10.696;2022-11-20T09:08:24;21.05;;;13.55;;
29550;SDS011;16488;52.396;10.696;2022-11-20T09:13:16;20.90;;;12.57;;
29550;SDS011;16488;52.396;10.696;2022-11-20T09:15:42;25.25;;;15.45;;
29550;SDS011;16488;52.396;10.696;2022-11-20T09:20:34;24.88;;;13.55;;
29550;SDS011;16488;52.396;10.696;2022-11-20T09:23:00;26.52;;;13.65;;
29550;SDS011;16488;52.396;10.696;2022-11-20T09:27:55;22.50;;;13.18;;
29550;SDS011;16488;52.396;10.696;2022-11-20T09:30:21;23.85;;;12.95;;
29550;SDS011;16488;52.396;10.696;2022-11-20T09:35:13;24.25;;;12.93;;
29550;SDS011;16488;52.396;10.696;2022-11-20T09:37:39;20.23;;;11.60;;
29550;SDS011;16488;52.396;10.696;2022-11-20T09:42:37;22.75;;;13.15;;
29550;SDS011;16488;52.396;10.696;2022-11-20T09:50:29;24.23;;;14.02;;
29550;SDS011;16488;52.396;10.696;2022-11-20T09:55:30;25.92;;;13.25;;
29550;SDS011;16488;52.396;10.696;2022-11-20T09:57:57;22.40;;;12.00;;
29550;SDS011;16488;52.396;10.696;2022-11-20T10:00:23;20.67;;;12.20;;
29550;SDS011;16488;52.396;10.696;2022-11-20T10:05:25;22.15;;;12.95;;
29550;SDS011;16488;52.396;10.696;2022-11-20T10:10:44;20.48;;;11.52;;
29550;SDS011;16488;52.396;10.696;2022-11-20T10:13:24;17.50;;;11.27;;
29550;SDS011;16488;52.396;10.696;2022-11-20T10:30:43;26.27;;;12.10;;
29550;SDS011;16488;52.396;10.696;2022-11-20T10:33:13;21.88;;;12.70;;
29550;SDS011;16488;52.396;10.696;2022-11-20T10:35:43;22.65;;;12.93;;
29550;SDS011;16488;52.396;10.696;2022-11-20T10:38:26;21.27;;;12.43;;
29550;SDS011;16488;52.396;10.696;2022-11-20T10:40:57;23.25;;;13.52;;
29550;SDS011;16488;52.396;10.696;2022-11-20T10:43:45;21.00;;;12.70;;
29550;SDS011;16488;52.396;10.696;2022-11-20T10:46:22;22.90;;;13.05;;
29550;SDS011;16488;52.396;10.696;2022-11-20T10:48:48;21.08;;;12.27;;
29550;SDS011;16488;52.396;10.696;2022-11-20T10:53:42;27.02;;;13.48;;
29550;SDS011;16488;52.396;10.696;2022-11-20T10:56:13;20.95;;;13.30;;
29550;SDS011;16488;52.396;10.696;2022-11-20T10:58:45;20.80;;;12.63;;
29550;SDS011;16488;52.396;10.696;2022-11-20T11:01:16;22.38;;;12.63;;
29550;SDS011;16488;52.396;10.696;2022-11-20T11:03:42;19.75;;;11.75;;
29550;SDS011;16488;52.396;10.696;2022-11-20T11:08:36;19.98;;;12.23;;
29550;SDS011;16488;52.396;10.696;2022-11-20T11:13:35;23.17;;;14.05;;
29550;SDS011;16488;52.396;10.696;2022-11-20T11:16:01;24.23;;;13.70;;
29550;SDS011;16488;52.396;10.696;2022-11-20T11:18:32;23.48;;;12.50;;
29550;SDS011;16488;52.396;10.696;2022-11-20T11:21:02;23.38;;;13.15;;
29550;SDS011;16488;52.396;10.696;2022-11-20T11:23:33;21.20;;;12.77;;
29550;SDS011;16488;52.396;10.696;2022-11-20T11:26:01;19.50;;;11.18;;
29550;SDS011;16488;52.396;10.696;2022-11-20T11:28:27;21.60;;;12.80;;
29550;SDS011;16488;52.396;10.696;2022-11-20T11:30:54;19.30;;;11.55;;
29550;SDS011;16488;52.396;10.696;2022-11-20T11:33:24;23.90;;;12.10;;
29550;SDS011;16488;52.396;10.696;2022-11-20T11:35:52;21.90;;;12.90;;
29550;SDS011;16488;52.396;10.696;2022-11-20T11:38:22;20.90;;;11.98;;
29550;SDS011;16488;52.396;10.696;2022-11-20T11:40:52;21.63;;;12.43;;
29550;SDS011;16488;52.396;10.696;2022-11-20T11:43:20;19.17;;;11.65;;
29550;SDS011;16488;52.396;10.696;2022-11-20T11:46:12;18.77;;;11.90;;
29550;SDS011;16488;52.396;10.696;2022-11-20T11:48:58;21.60;;;13.07;;
29550;SDS011;16488;52.396;10.696;2022-11-20T11:52:10;22.63;;;11.88;;
29550;SDS011;16488;52.396;10.696;2022-11-20T11:54:14;23.05;;;12.27;;
29550;SDS011;16488;52.396;10.696;2022-11-20T11:56:41;19.85;;;12.38;;
29550;SDS011;16488;52.396;10.696;2022-11-20T11:59:08;20.88;;;10.70;;
29550;SDS011;16488;52.396;10.696;2022-11-20T12:04:04;20.17;;;11.85;;
29550;SDS011;16488;52.396;10.696;2022-11-20T12:06:32;20.27;;;11.02;;
29550;SDS011;16488;52.396;10.696;2022-11-20T12:09:01;20.25;;;12.82;;
29550;SDS011;16488;52.396;10.696;2022-11-20T12:11:44;23.70;;;13.25;;
29550;SDS011;16488;52.396;10.696;2022-11-20T12:14:13;21.10;;;12.70;;
29550;SDS011;16488;52.396;10.696;2022-11-20T12:16:40;23.27;;;13.30;;
29550;SDS011;16488;52.396;10.696;2022-11-20T12:37:06;22.20;;;13.98;;
29550;SDS011;16488;52.396;10.696;2022-11-20T12:39:43;24.58;;;13.63;;
29550;SDS011;16488;52.396;10.696;2022-11-20T12:52:51;24.80;;;13.45;;
29550;SDS011;16488;52.396;10.696;2022-11-20T12:55:25;23.48;;;14.13;;
29550;SDS011;16488;52.396;10.696;2022-11-20T12:57:55;22.45;;;12.75;;
29550;SDS011;16488;52.396;10.696;2022-11-20T13:00:23;23.70;;;13.00;;
29550;SDS011;16488;52.396;10.696;2022-11-20T13:02:58;23.38;;;13.55;;
29550;SDS011;16488;52.396;10.696;2022-11-20T13:05:31;34.35;;;14.55;;
29550;SDS011;16488;52.396;10.696;2022-11-20T13:08:00;27.23;;;14.05;;
29550;SDS011;16488;52.396;10.696;2022-11-20T13:10:30;23.38;;;14.35;;
29550;SDS011;16488;52.396;10.696;2022-11-20T13:12:59;26.02;;;12.63;;
29550;SDS011;16488;52.396;10.696;2022-11-20T13:15:35;20.88;;;12.90;;
29550;SDS011;16488;52.396;10.696;2022-11-20T13:18:08;23.88;;;13.43;;
29550;SDS011;16488;52.396;10.696;2022-11-20T13:20:35;21.42;;;12.73;;
29550;SDS011;16488;52.396;10.696;2022-11-20T13:23:02;20.52;;;12.52;;
29550;SDS011;16488;52.396;10.696;2022-11-20T13:25:29;22.77;;;13.38;;
29550;SDS011;16488;52.396;10.696;2022-11-20T13:27:55;23.17;;;13.38;;
29550;SDS011;16488;52.396;10.696;2022-11-20T13:30:31;23.05;;;13.23;;
29550;SDS011;16488;52.396;10.696;2022-11-20T13:33:07;22.13;;;12.88;;
29550;SDS011;16488;52.396;10.696;2022-11-20T13:35:37;25.58;;;13.93;;
29550;SDS011;16488;52.396;10.696;2022-11-20T13:38:07;25.25;;;14.10;;
29550;SDS011;16488;52.396;10.696;2022-11-20T13:40:36;24.92;;;14.68;;
29550;SDS011;16488;52.396;10.696;2022-11-20T13:46:00;22.98;;;13.27;;
29550;SDS011;16488;52.396;10.696;2022-11-20T13:48:27;25.77;;;13.95;;
29550;SDS011;16488;52.396;10.696;2022-11-20T13:50:58;20.95;;;12.50;;
29550;SDS011;16488;52.396;10.696;2022-11-20T13:53:36;22.50;;;13.63;;
29550;SDS011;16488;52.396;10.696;2022-11-20T14:01:11;26.60;;;14.57;;
29550;SDS011;16488;52.396;10.696;2022-11-20T14:03:40;23.90;;;13.35;;
29550;SDS011;16488;52.396;10.696;2022-11-20T14:08:37;26.23;;;13.98;;
29550;SDS011;16488;52.396;10.696;2022-11-20T14:11:05;23.52;;;13.95;;
29550;SDS011;16488;52.396;10.696;2022-11-20T14:13:31;21.58;;;13.02;;
29550;SDS011;16488;52.396;10.696;2022-11-20T14:15:57;28.38;;;15.10;;
29550;SDS011;16488;52.396;10.696;2022-11-20T14:18:25;24.23;;;15.07;;
29550;SDS011;16488;52.396;10.696;2022-11-20T14:20:51;20.38;;;12.57;;
29550;SDS011;16488;52.396;10.696;2022-11-20T14:23:23;24.67;;;13.27;;
29550;SDS011;16488;52.396;10.696;2022-11-20T14:25:49;24.67;;;14.38;;
29550;SDS011;16488;52.396;10.696;2022-11-20T14:28:34;23.02;;;13.63;;
29550;SDS011;16488;52.396;10.696;2022-11-20T14:31:00;24.40;;;13.73;;
29550;SDS011;16488;52.396;10.696;2022-11-20T14:33:26;25.33;;;14.55;;
29550;SDS011;16488;52.396;10.696;2022-11-20T14:35:56;26.60;;;15.10;;
29550;SDS011;16488;52.396;10.696;2022-11-20T14:38:29;24.83;;;13.30;;
29550;SDS011;16488;52.396;10.696;2022-11-20T14:41:07;23.88;;;13.93;;
29550;SDS011;16488;52.396;10.696;2022-11-20T14:46:03;25.60;;;13.95;;
29550;SDS011;16488;52.396;10.696;2022-11-20T14:48:31;23.38;;;13.77;;
29550;SDS011;16488;52.396;10.696;2022-11-20T14:50:58;29.52;;;16.13;;
29550;SDS011;16488;52.396;10.696;2022-11-20T14:53:24;26.98;;;13.25;;
29550;SDS011;16488;52.396;10.696;2022-11-20T14:55:55;30.80;;;17.25;;
29550;SDS011;16488;52.396;10.696;2022-11-20T14:58:22;27.60;;;16.35;;
29550;SDS011;16488;52.396;10.696;2022-11-20T15:00:56;30.60;;;17.27;;
29550;SDS011;16488;52.396;10.696;2022-11-20T15:03:22;32.85;;;19.35;;
29550;SDS011;16488;52.396;10.696;2022-11-20T15:05:49;32.63;;;18.95;;
29550;SDS011;16488;52.396;10.696;2022-11-20T15:08:16;35.80;;;19.73;;
29550;SDS011;16488;52.396;10.696;2022-11-20T15:10:45;30.52;;;17.35;;
29550;SDS011;16488;52.396;10.696;2022-11-20T15:13:12;35.40;;;18.08;;
29550;SDS011;16488;52.396;10.696;2022-11-20T15:18:15;26.45;;;16.30;;
29550;SDS011;16488;52.396;10.696;2022-11-20T15:20:42;37.90;;;17.58;;
29550;SDS011;16488;52.396;10.696;2022-11-20T15:23:12;34.20;;;16.48;;
29550;SDS011;16488;52.396;10.696;2022-11-20T15:25:39;32.90;;;18.77;;
29550;SDS011;16488;52.396;10.696;2022-11-20T15:28:08;27.83;;;17.02;;
29550;SDS011;16488;52.396;10.696;2022-11-20T15:30:39;31.75;;;16.60;;
29550;SDS011;16488;52.396;10.696;2022-11-20T15:33:07;31.40;;;16.90;;
29550;SDS011;16488;52.396;10.696;2022-11-20T15:35:33;26.05;;;15.60;;
29550;SDS011;16488;52.396;10.696;2022-11-20T15:37:59;23.10;;;13.15;;
29550;SDS011;16488;52.396;10.696;2022-11-20T15:40:25;20.20;;;13.30;;
29550;SDS011;16488;52.396;10.696;2022-11-20T15:42:51;21.35;;;12.93;;
29550;SDS011;16488;52.396;10.696;2022-11-20T15:45:33;23.98;;;11.75;;
29550;SDS011;16488;52.396;10.696;2022-11-20T15:48:01;17.10;;;10.50;;
29550;SDS011;16488;52.396;10.696;2022-11-20T15:50:29;21.42;;;11.25;;
29550;SDS011;16488;52.396;10.696;2022-11-20T15:52:55;19.77;;;11.65;;
29550;SDS011;16488;52.396;10.696;2022-11-20T15:55:21;22.90;;;11.40;;
29550;SDS011;16488;52.396;10.696;2022-11-20T15:57:47;25.98;;;12.48;;
29550;SDS011;16488;52.396;10.696;2022-11-20T16:00:13;21.08;;;10.93;;
29550;SDS011;16488;52.396;10.696;2022-11-20T16:02:39;18.10;;;11.82;;
29550;SDS011;16488;52.396;10.696;2022-11-20T16:05:09;21.70;;;12.18;;
29550;SDS011;16488;52.396;10.696;2022-11-20T16:07:35;24.52;;;13.10;;
29550;SDS011;16488;52.396;10.696;2022-11-20T16:10:01;21.45;;;12.18;;
29550;SDS011;16488;52.396;10.696;2022-11-20T16:12:28;21.00;;;12.95;;
29550;SDS011;16488;52.396;10.696;2022-11-20T16:15:12;28.33;;;14.85;;
29550;SDS011;16488;52.396;10.696;2022-11-20T16:17:58;22.98;;;14.27;;
29550;SDS011;16488;52.396;10.696;2022-11-20T16:20:24;27.30;;;15.55;;
29550;SDS011;16488;52.396;10.696;2022-11-20T16:22:50;26.63;;;14.52;;
29550;SDS011;16488;52.396;10.696;2022-11-20T16:27:42;22.65;;;12.77;;
29550;SDS011;16488;52.396;10.696;2022-11-20T16:30:08;26.23;;;14.30;;
29550;SDS011;16488;52.396;10.696;2022-11-20T16:32:34;25.95;;;13.50;;
29550;SDS011;16488;52.396;10.696;2022-11-20T16:37:27;29.17;;;15.98;;
29550;SDS011;16488;52.396;10.696;2022-11-20T16:39:53;31.60;;;16.40;;
29550;SDS011;16488;52.396;10.696;2022-11-20T16:42:21;41.28;;;20.92;;
29550;SDS011;16488;52.396;10.696;2022-11-20T16:47:12;42.67;;;21.02;;
29550;SDS011;16488;52.396;10.696;2022-11-20T16:49:38;38.63;;;18.65;;
29550;SDS011;16488;52.396;10.696;2022-11-20T16:52:04;54.28;;;28.08;;
29550;SDS011;16488;52.396;10.696;2022-11-20T16:54:31;36.80;;;21.25;;
29550;SDS011;16488;52.396;10.696;2022-11-20T16:59:23;35.47;;;18.42;;
29550;SDS011;16488;52.396;10.696;2022-11-20T17:01:49;29.95;;;17.27;;
29550;SDS011;16488;52.396;10.696;2022-11-20T17:06:41;35.30;;;18.23;;
29550;SDS011;16488;52.396;10.696;2022-11-20T17:11:18;34.67;;;18.10;;
29550;SDS011;16488;52.396;10.696;2022-11-20T17:13:44;32.17;;;17.98;;
29550;SDS011;16488;52.396;10.696;2022-11-20T17:16:11;35.88;;;16.73;;
29550;SDS011;16488;52.396;10.696;2022-11-20T17:18:37;29.75;;;16.65;;
29550;SDS011;16488;52.396;10.696;2022-11-20T17:21:04;34.17;;;18.27;;
29550;SDS011;16488;52.396;10.696;2022-11-20T17:23:31;34.22;;;17.27;;
29550;SDS011;16488;52.396;10.696;2022-11-20T17:26:01;38.30;;;18.48;;
29550;SDS011;16488;52.396;10.696;2022-11-20T17:28:28;35.08;;;18.17;;
29550;SDS011;16488;52.396;10.696;2022-11-20T17:31:01;38.88;;;17.23;;
29550;SDS011;16488;52.396;10.696;2022-11-20T17:33:28;35.75;;;18.23;;
29550;SDS011;16488;52.396;10.696;2022-11-20T17:35:54;32.85;;;17.38;;
29550;SDS011;16488;52.396;10.696;2022-11-20T17:40:46;36.22;;;19.20;;
29550;SDS011;16488;52.396;10.696;2022-11-20T17:43:12;38.72;;;20.05;;
29550;SDS011;16488;52.396;10.696;2022-11-20T17:48:04;40.60;;;19.20;;
29550;SDS011;16488;52.396;10.696;2022-11-20T17:52:56;51.42;;;23.90;;
29550;SDS011;16488;52.396;10.696;2022-11-20T17:57:48;58.58;;;28.08;;
29550;SDS011;16488;52.396;10.696;2022-11-20T18:00:17;62.28;;;29.77;;
29550;SDS011;16488;52.396;10.696;2022-11-20T18:02:44;62.30;;;28.60;;
29550;SDS011;16488;52.396;10.696;2022-11-20T18:07:36;75.70;;;33.97;;
29550;SDS011;16488;52.396;10.696;2022-11-20T18:10:04;54.50;;;28.08;;
29550;SDS011;16488;52.396;10.696;2022-11-20T18:12:33;48.83;;;23.70;;
29550;SDS011;16488;52.396;10.696;2022-11-20T18:17:25;42.22;;;21.17;;
29550;SDS011;16488;52.396;10.696;2022-11-20T18:22:17;46.50;;;19.67;;
29550;SDS011;16488;52.396;10.696;2022-11-20T18:24:44;37.63;;;18.55;;
29550;SDS011;16488;52.396;10.696;2022-11-20T18:27:17;44.83;;;23.23;;
29550;SDS011;16488;52.396;10.696;2022-11-20T18:29:44;42.42;;;21.15;;
29550;SDS011;16488;52.396;10.696;2022-11-20T18:32:12;48.47;;;23.50;;
29550;SDS011;16488;52.396;10.696;2022-11-20T18:34:38;45.33;;;21.88;;
29550;SDS011;16488;52.396;10.696;2022-11-20T18:39:30;34.20;;;16.50;;
29550;SDS011;16488;52.396;10.696;2022-11-20T18:44:41;38.53;;;20.85;;
29550;SDS011;16488;52.396;10.696;2022-11-20T18:47:18;36.42;;;18.45;;
29550;SDS011;16488;52.396;10.696;2022-11-20T18:49:46;40.50;;;21.33;;
29550;SDS011;16488;52.396;10.696;2022-11-20T18:52:20;41.95;;;21.92;;
29550;SDS011;16488;52.396;10.696;2022-11-20T18:54:46;36.58;;;19.95;;
29550;SDS011;16488;52.396;10.696;2022-11-20T18:59:41;42.85;;;19.00;;
29550;SDS011;16488;52.396;10.696;2022-11-20T19:02:08;33.20;;;17.83;;
29550;SDS011;16488;52.396;10.696;2022-11-20T19:04:35;34.60;;;17.85;;
29550;SDS011;16488;52.396;10.696;2022-11-20T19:09:27;38.83;;;17.27;;
29550;SDS011;16488;52.396;10.696;2022-11-20T19:11:53;32.65;;;17.00;;